Main page
METAR-TAF:

METAR-TAF

Airports :

Qurghonteppa International Airport

Qurghonteppa, Tajikistan

latitude: 37-51-44N, longitude: 068-51-46E, elevation: 449 m

Current weather observation

The report was made 21 minutes ago, at 05:00 UTC
Wind 6 kt from the North, varying between Northwest and North/Northeast
Temperature 25°C
Humidity 54%
Pressure 1011 hPa
Visibility 10 km or more
Scattered clouds at a height of 10000 ft

METAR: UTDT 200500Z 35003MPS 310V020 9999 SCT100 25/15 Q1011 R35/CLRD70 RMK QFE719/0959

Time: 10:21 (05:21 UTC)

Forecast

The report was made 2 hours and 21 minutes ago, at 03:00 UTC
Forecast valid from 20 at 04 UTC to 20 at 13 UTC
Wind 4 kt from variable directions
Visibility: 6000 m
Scattered clouds at a height of 3000 ft, Cumulonimbus.
Broken clouds at a height of 10000 ft
Temporary
from 20 at 04 UTC to 20 at 13 UTC
Wind 16 kt from variable directions
Visibility: 3100 m
thunderstorm, light rain, mist

TAF: UTDT 200300Z 2004/2013 VRB02MPS 6000 SCT030CB BKN100 TEMPO 2004/2013 VRB08MPS 3100 -TSRA BR

Weather observations and forecasts of more than 4000 airports (METAR and TAF reports).

The available stations are represented by yellow and red dots on the map.

Hover mouse over dot to see the name of the station.

Then click to see weather observations and forecasts.

To change the map : click on the green buttons with a black cross to zoom in, on the green button with a dash to zoom out, or on the green arrows for adjacent maps.


METAR-TAF: